Time;durP1;ratioP1;P1;durP2;ratioP2;P2;SDS_P1;SDS_P2;PMS_P1;PMS_P2;Temp;Humidity;BMP_temperature;BMP_pressure;BME280_temperature;BME280_humidity;BME280_pressure;Samples;Min_cycle;Max_cycle;Signal;HPM_P1;HPM_P2
2023/12/01 00:00:42;;;;;;;;;;;;;;;;;;6264188;28;19927;-83
2023/12/01 00:03:43;;;;;;;;;;;;;;;;;;6281363;28;19913;-83
2023/12/01 00:06:43;;;;;;;;;;;;;;;;;;6282892;28;19921;-83
2023/12/01 00:09:43;;;;;;;;;;;;;;;;;;6279442;28;20272;-84
2023/12/01 00:12:43;;;;;;;;;;;;;;;;;;6268817;28;20286;-84
2023/12/01 00:15:44;;;;;;;;;;;;;;;;;;6290766;28;20305;-83
2023/12/01 00:18:44;;;;;;;;;;;;;;;;;;6276365;28;19913;-84
2023/12/01 00:21:44;;;;;;;;;;;;;;;;;;6276071;28;19912;-83
2023/12/01 00:24:44;;;;;;;;;;;;;;;;;;6281732;28;19920;-84
2023/12/01 00:27:45;;;;;;;;;;;;;;;;;;6279521;28;19912;-83
2023/12/01 00:30:45;;;;;;;;;;;;;;;;;;6280385;28;19936;-83
2023/12/01 00:33:45;;;;;;;;;;;;;;;;;;6273187;28;19929;-83
2023/12/01 00:36:45;;;;;;;;;;;;;;;;;;6282560;28;19920;-83
2023/12/01 00:39:46;;;;;;;;;;;;;;;;;;6291189;28;19912;-83
2023/12/01 00:42:46;;;;;;;;;;;;;;;;;;6277156;28;20410;-83
2023/12/01 00:45:46;;;;;;;;;;;;;;;;;;6279382;28;19917;-84
2023/12/01 00:48:46;;;;;;;;;;;;;;;;;;6275849;28;19912;-83
2023/12/01 00:51:47;;;;;;;;;;;;;;;;;;6274072;28;20027;-83
2023/12/01 00:54:47;;;;;;;;;;;;;;;;;;6279381;28;20015;-84
2023/12/01 00:57:53;;;;;;;;;;;;;;;;;;6283238;28;20005;-83
2023/12/01 01:00:53;;;;;;;;;;;;;;;;;;6279696;28;19920;-83
2023/12/01 01:03:53;;;;;;;;;;;;;;;;;;6269987;28;19912;-83
2023/12/01 01:06:53;;;;;;;;;;;;;;;;;;6263373;28;19913;-82
2023/12/01 01:09:54;;;;;;;;;;;;;;;;;;6263444;28;19920;-83
2023/12/01 01:16:12;;;;;;;;;;;;;;;;;;6276331;28;19913;-83
2023/12/01 01:19:12;;;;;;;;;;;;;;;;;;6275244;28;19919;-82
2023/12/01 01:22:13;;;;;;;;;;;;;;;;;;6275558;28;19913;-83
2023/12/01 01:25:13;;;;;;;;;;;;;;;;;;6290459;28;19961;-83
2023/12/01 01:28:13;;;;;;;;;;;;;;;;;;6280768;28;20002;-83
2023/12/01 01:31:13;;;;;;;;;;;;;;;;;;6274535;28;19924;-83
2023/12/01 01:34:13;;;;;;;;;;;;;;;;;;6270237;28;19964;-83
2023/12/01 01:37:13;;;;;;;;;;;;;;;;;;6262450;28;19963;-83
2023/12/01 01:40:14;;;;;;;;;;;;;;;;;;6276484;28;19920;-83
2023/12/01 01:43:14;;;;;;;;;;;;;;;;;;6276170;28;19958;-83
2023/12/01 01:46:14;;;;;;;;;;;;;;;;;;6276984;28;20003;-83
2023/12/01 01:49:14;;;;;;;;;;;;;;;;;;6277019;28;19995;-83
2023/12/01 01:52:14;;;;;;;;;;;;;;;;;;6271411;28;19919;-83
2023/12/01 01:55:15;;;;;;;;;;;;;;;;;;6278194;28;19913;-83
2023/12/01 01:58:15;;;;;;;;;;;;;;;;;;6279346;28;20020;-83
2023/12/01 02:01:15;;;;;;;;;;;;;;;;;;6276321;28;19991;-83
2023/12/01 02:04:16;;;;;;;;;;;;;;;;;;6261661;28;20011;-83
2023/12/01 02:07:16;;;;;;;;;;;;;;;;;;6275967;28;19966;-83
2023/12/01 02:10:16;;;;;;;;;;;;;;;;;;6274069;28;19920;-84
2023/12/01 02:13:17;;;;;;;;;;;;;;;;;;6267821;28;20022;-83
2023/12/01 02:16:17;;;;;;;;;;;;;;;;;;6256336;28;19934;-83
2023/12/01 02:19:17;;;;;;;;;;;;;;;;;;6279410;28;19939;-85
2023/12/01 02:22:17;;;;;;;;;;;;;;;;;;6289982;28;19963;-89
2023/12/01 02:25:17;;;;;;;;;;;;;;;;;;6279557;28;20277;-89
2023/12/01 02:28:17;;;;;;;;;;;;;;;;;;6275322;28;19963;-89
2023/12/01 02:31:17;;;;;;;;;;;;;;;;;;6273485;28;20024;-89
2023/12/01 02:34:21;;;;;;;;;;;;;;;;;;6271582;28;20284;-88
2023/12/01 02:37:21;;;;;;;;;;;;;;;;;;6276001;28;20403;-88
2023/12/01 02:40:22;;;;;;;;;;;;;;;;;;6273043;28;19920;-88
2023/12/01 02:43:22;;;;;;;;;;;;;;;;;;6277977;28;19967;-89
2023/12/01 02:46:22;;;;;;;;;;;;;;;;;;6279466;28;19912;-88
2023/12/01 02:49:24;;;;;;;;;;;;;;;;;;6280695;28;19920;-88
2023/12/01 02:52:25;;;;;;;;;;;;;;;;;;6265383;28;19913;-89
2023/12/01 02:55:25;;;;;;;;;;;;;;;;;;6256889;28;19920;-88
2023/12/01 02:58:25;;;;;;;;;;;;;;;;;;6280745;28;19938;-88
2023/12/01 03:01:25;;;;;;;;;;;;;;;;;;6282027;28;19912;-87
2023/12/01 03:04:25;;;;;;;;;;;;;;;;;;6279141;28;19918;-88
2023/12/01 03:07:25;;;;;;;;;;;;;;;;;;6286059;28;20011;-89
2023/12/01 03:10:25;;;;;;;;;;;;;;;;;;6285389;28;20007;-88
2023/12/01 03:13:26;;;;;;;;;;;;;;;;;;6270301;28;20027;-88
2023/12/01 03:16:26;;;;;;;;;;;;;;;;;;6280818;28;19919;-88
2023/12/01 03:19:26;;;;;;;;;;;;;;;;;;6283590;28;19958;-89
2023/12/01 03:22:26;;;;;;;;;;;;;;;;;;6280960;28;19920;-88
2023/12/01 03:25:26;;;;;;;;;;;;;;;;;;6279647;28;19920;-88
2023/12/01 03:28:26;;;;;;;;;;;;;;;;;;6284879;28;19913;-88
2023/12/01 03:31:26;;;;;;;;;;;;;;;;;;6277441;28;19928;-88
2023/12/01 03:34:26;;;;;;;;;;;;;;;;;;6281205;28;19921;-88
2023/12/01 03:37:27;;;;;;;;;;;;;;;;;;6283993;28;20289;-88
2023/12/01 03:40:27;;;;;;;;;;;;;;;;;;6266055;28;20011;-88
2023/12/01 03:43:27;;;;;;;;;;;;;;;;;;6276728;28;20003;-88
2023/12/01 03:46:27;;;;;;;;;;;;;;;;;;6279513;28;19912;-89
2023/12/01 03:49:27;;;;;;;;;;;;;;;;;;6277401;28;19912;-88
2023/12/01 03:52:27;;;;;;;;;;;;;;;;;;6275794;28;20042;-88
2023/12/01 03:55:27;;;;;;;;;;;;;;;;;;6276971;28;19936;-87
2023/12/01 03:58:28;;;;;;;;;;;;;;;;;;6275479;28;19912;-88
2023/12/01 04:01:29;;;;;;;;;;;;;;;;;;6278376;28;19965;-88
2023/12/01 04:04:29;;;;;;;;;;;;;;;;;;6269834;28;20336;-88
2023/12/01 04:07:29;;;;;;;;;;;;;;;;;;6269172;28;19917;-88
2023/12/01 04:10:30;;;;;;;;;;;;;;;;;;6277367;28;19917;-89
2023/12/01 04:13:30;;;;;;;;;;;;;;;;;;6276869;28;19929;-88
2023/12/01 04:16:30;;;;;;;;;;;;;;;;;;6273908;28;19916;-88
2023/12/01 04:19:30;;;;;;;;;;;;;;;;;;6274902;28;19924;-88
2023/12/01 04:22:30;;;;;;;;;;;;;;;;;;6273916;28;19943;-88
2023/12/01 04:25:30;;;;;;;;;;;;;;;;;;6279137;28;19949;-88
2023/12/01 04:28:31;;;;;;;;;;;;;;;;;;6273700;28;20404;-88
2023/12/01 04:31:31;;;;;;;;;;;;;;;;;;6265022;28;19929;-88
2023/12/01 04:34:31;;;;;;;;;;;;;;;;;;6273851;28;19920;-88
2023/12/01 04:37:31;;;;;;;;;;;;;;;;;;6276991;28;20011;-88
2023/12/01 04:40:31;;;;;;;;;;;;;;;;;;6275242;28;20006;-88
2023/12/01 04:43:33;;;;;;;;;;;;;;;;;;6277484;28;19956;-88
2023/12/01 04:46:33;;;;;;;;;;;;;;;;;;6272375;28;19966;-88
2023/12/01 04:49:33;;;;;;;;;;;;;;;;;;6278126;28;20011;-88
2023/12/01 04:52:33;;;;;;;;;;;;;;;;;;6273798;28;20015;-83
2023/12/01 04:55:33;;;;;;;;;;;;;;;;;;6275546;28;20066;-83
2023/12/01 04:58:33;;;;;;;;;;;;;;;;;;6289248;28;20049;-83
2023/12/01 05:01:35;;;;;;;;;;;;;;;;;;6276298;28;19912;-84
2023/12/01 05:04:35;;;;;;;;;;;;;;;;;;6264635;28;20023;-83
2023/12/01 05:07:35;;;;;;;;;;;;;;;;;;6276236;28;20393;-83
2023/12/01 05:10:36;;;;;;;;;;;;;;;;;;6274960;28;19997;-83
2023/12/01 05:13:36;;;;;;;;;;;;;;;;;;6269067;28;19920;-84
2023/12/01 05:16:36;;;;;;;;;;;;;;;;;;6275004;28;19959;-83
2023/12/01 05:19:37;;;;;;;;;;;;;;;;;;6275665;28;19913;-83
2023/12/01 05:22:37;;;;;;;;;;;;;;;;;;6260405;28;19921;-83
2023/12/01 05:25:44;;;;;;;;;;;;;;;;;;6276193;28;20269;-83
2023/12/01 05:28:44;;;;;;;;;;;;;;;;;;6272429;28;19951;-84
2023/12/01 05:31:44;;;;;;;;;;;;;;;;;;6271064;28;20306;-83
2023/12/01 05:34:44;;;;;;;;;;;;;;;;;;6273695;28;20056;-83
2023/12/01 05:37:48;;;;;;;;;;;;;;;;;;6275084;28;20019;-83
2023/12/01 05:40:48;;;;;;;;;;;;;;;;;;6267178;28;19917;-83
2023/12/01 05:43:48;;;;;;;;;;;;;;;;;;6273421;28;20011;-83
2023/12/01 05:46:48;;;;;;;;;;;;;;;;;;6271732;28;19950;-83
2023/12/01 05:49:50;;;;;;;;;;;;;;;;;;6274786;28;19972;-83
2023/12/01 05:52:51;;;;;;;;;;;;;;;;;;6261701;28;19929;-84
2023/12/01 05:55:51;;;;;;;;;;;;;;;;;;6275244;28;19919;-85
2023/12/01 05:58:51;;;;;;;;;;;;;;;;;;6276384;28;19912;-83
2023/12/01 06:01:51;;;;;;;;;;;;;;;;;;6288953;28;20043;-89
2023/12/01 06:04:52;;;;;;;;;;;;;;;;;;6273997;28;19920;-88
2023/12/01 06:07:52;;;;;;;;;;;;;;;;;;6272784;28;20270;-88
2023/12/01 06:10:52;;;;;;;;;;;;;;;;;;6274579;28;19948;-88
2023/12/01 06:13:52;;;;;;;;;;;;;;;;;;6286821;28;19947;-88
2023/12/01 06:16:52;;;;;;;;;;;;;;;;;;6264932;28;19931;-88
2023/12/01 06:19:53;;;;;;;;;;;;;;;;;;6273737;28;19913;-88
2023/12/01 06:22:53;;;;;;;;;;;;;;;;;;6276536;28;20011;-88
2023/12/01 06:25:53;;;;;;;;;;;;;;;;;;6276511;28;19954;-88
2023/12/01 06:28:53;;;;;;;;;;;;;;;;;;6266735;28;19913;-89
2023/12/01 06:31:54;;;;;;;;;;;;;;;;;;6269970;28;19992;-89
2023/12/01 06:34:57;;;;;;;;;;;;;;;;;;6260328;28;20396;-89
2023/12/01 06:37:57;;;;;;;;;;;;;;;;;;6270967;28;19913;-89
2023/12/01 06:40:57;;;;;;;;;;;;;;;;;;6267319;28;19919;-88
2023/12/01 06:43:57;;;;;;;;;;;;;;;;;;6278639;28;20769;-89
2023/12/01 06:46:58;;;;;;;;;;;;;;;;;;6272875;28;19959;-89
2023/12/01 06:49:58;;;;;;;;;;;;;;;;;;6275879;28;19913;-89
2023/12/01 06:52:59;;;;;;;;;;;;;;;;;;6265356;28;19987;-89
2023/12/01 06:55:59;;;;;;;;;;;;;;;;;;6256987;28;20306;-89
2023/12/01 06:59:00;;;;;;;;;;;;;;;;;;6270830;28;20003;-89
2023/12/01 07:02:00;;;;;;;;;;;;;;;;;;6281767;28;20327;-88
2023/12/01 07:05:00;;;;;;;;;;;;;;;;;;6270670;28;23513;-89
2023/12/01 07:08:01;;;;;;;;;;;;;;;;;;6275833;28;19913;-88
2023/12/01 07:11:01;;;;;;;;;;;;;;;;;;6279723;28;19923;-88
2023/12/01 07:14:01;;;;;;;;;;;;;;;;;;6262608;28;20028;-89
2023/12/01 07:17:01;;;;;;;;;;;;;;;;;;6274504;28;20015;-89
2023/12/01 07:20:01;;;;;;;;;;;;;;;;;;6279209;28;20015;-89
2023/12/01 07:23:01;;;;;;;;;;;;;;;;;;6271585;28;19913;-88
2023/12/01 07:26:01;;;;;;;;;;;;;;;;;;6268333;28;19913;-88
2023/12/01 07:29:04;;;;;;;;;;;;;;;;;;6268292;28;19921;-88
2023/12/01 07:32:04;;;;;;;;;;;;;;;;;;6275666;28;20320;-88
2023/12/01 07:35:04;;;;;;;;;;;;;;;;;;6269694;28;19921;-88
2023/12/01 07:38:04;;;;;;;;;;;;;;;;;;6273079;28;19913;-89
2023/12/01 07:41:07;;;;;;;;;;;;;;;;;;6278133;28;20138;-88
2023/12/01 07:44:07;;;;;;;;;;;;;;;;;;6278949;28;19920;-88
2023/12/01 07:47:11;;;;;;;;;;;;;;;;;;6266654;28;19978;-89
2023/12/01 07:50:14;;;;;;;;;;;;;;;;;;6275931;28;19913;-89
2023/12/01 07:53:15;;;;;;;;;;;;;;;;;;6263938;28;19921;-89
2023/12/01 07:56:15;;;;;;;;;;;;;;;;;;6281585;28;19919;-88
2023/12/01 07:59:15;;;;;;;;;;;;;;;;;;6281280;28;19917;-88
2023/12/01 08:02:16;;;;;;;;;;;;;;;;;;6277417;28;19917;-89
2023/12/01 08:05:16;;;;;;;;;;;;;;;;;;6278071;28;19939;-88
2023/12/01 08:08:16;;;;;;;;;;;;;;;;;;6277440;28;19970;-89
2023/12/01 08:11:19;;;;;;;;;;;;;;;;;;6278847;28;19948;-88
2023/12/01 08:14:19;;;;;;;;;;;;;;;;;;6279221;28;19936;-88
2023/12/01 08:17:19;;;;;;;;;;;;;;;;;;6261322;28;20233;-87
2023/12/01 08:20:19;;;;;;;;;;;;;;;;;;6274120;28;19916;-87
2023/12/01 08:23:19;;;;;;;;;;;;;;;;;;6268366;28;19920;-83
2023/12/01 08:26:19;;;;;;;;;;;;;;;;;;6279238;28;20364;-82
2023/12/01 08:29:19;;;;;;;;;;;;;;;;;;6275704;28;19913;-82
2023/12/01 08:32:20;;;;;;;;;;;;;;;;;;6272064;28;19928;-83
2023/12/01 08:35:21;;;;;;;;;;;;;;;;;;6276395;28;19925;-83
2023/12/01 08:38:21;;;;;;;;;;;;;;;;;;6274777;28;19921;-82
2023/12/01 08:41:21;;;;;;;;;;;;;;;;;;6271881;28;19975;-83
2023/12/01 08:44:22;;;;;;;;;;;;;;;;;;6267640;28;20404;-83
2023/12/01 08:47:22;;;;;;;;;;;;;;;;;;6273779;28;20320;-83
2023/12/01 08:50:22;;;;;;;;;;;;;;;;;;6277058;28;20305;-84
2023/12/01 08:53:22;;;;;;;;;;;;;;;;;;6277452;28;20281;-82
2023/12/01 08:56:23;;;;;;;;;;;;;;;;;;6278438;28;20404;-83
2023/12/01 08:59:23;;;;;;;;;;;;;;;;;;6270931;28;19913;-84
2023/12/01 09:02:23;;;;;;;;;;;;;;;;;;6288515;28;19916;-84
2023/12/01 09:05:24;;;;;;;;;;;;;;;;;;6260420;28;19942;-84
2023/12/01 09:08:24;;;;;;;;;;;;;;;;;;6273274;28;19913;-84
2023/12/01 09:11:24;;;;;;;;;;;;;;;;;;6287194;28;19920;-84
2023/12/01 09:14:24;;;;;;;;;;;;;;;;;;6277819;28;19920;-84
2023/12/01 09:17:25;;;;;;;;;;;;;;;;;;6271795;28;19913;-84
2023/12/01 09:20:25;;;;;;;;;;;;;;;;;;6271626;28;19912;-84
2023/12/01 09:23:25;;;;;;;;;;;;;;;;;;6279187;28;19913;-82
2023/12/01 09:26:25;;;;;;;;;;;;;;;;;;6274407;28;19912;-84
2023/12/01 09:29:25;;;;;;;;;;;;;;;;;;6277973;28;19919;-83
2023/12/01 09:32:25;;;;;;;;;;;;;;;;;;6274243;28;19913;-83
2023/12/01 09:35:26;;;;;;;;;;;;;;;;;;6273470;28;19927;-83
2023/12/01 09:38:26;;;;;;;;;;;;;;;;;;6273836;28;20460;-83
2023/12/01 09:41:26;;;;;;;;;;;;;;;;;;6271759;28;19923;-84
2023/12/01 09:44:26;;;;;;;;;;;;;;;;;;6273883;28;19923;-84
2023/12/01 09:47:26;;;;;;;;;;;;;;;;;;6272209;28;19913;-85
2023/12/01 09:50:26;;;;;;;;;;;;;;;;;;6275568;28;19916;-83
2023/12/01 09:53:26;;;;;;;;;;;;;;;;;;6269983;28;19920;-82
2023/12/01 09:56:27;;;;;;;;;;;;;;;;;;6272054;28;19923;-83
2023/12/01 09:59:27;;;;;;;;;;;;;;;;;;6274607;28;19925;-83
2023/12/01 10:02:27;;;;;;;;;;;;;;;;;;6259433;28;19955;-84
2023/12/01 10:05:28;;;;;;;;;;;;;;;;;;6274847;28;19966;-83
2023/12/01 10:08:28;;;;;;;;;;;;;;;;;;6275351;28;19912;-84
2023/12/01 10:11:28;;;;;;;;;;;;;;;;;;6273097;28;19913;-86
2023/12/01 10:14:29;;;;;;;;;;;;;;;;;;6270223;28;20035;-86
2023/12/01 10:17:29;;;;;;;;;;;;;;;;;;6272792;28;19924;-83
2023/12/01 10:20:29;;;;;;;;;;;;;;;;;;6273285;28;19917;-83
2023/12/01 10:23:30;;;;;;;;;;;;;;;;;;6271018;28;19966;-82
2023/12/01 10:26:30;;;;;;;;;;;;;;;;;;6271535;28;19959;-82
2023/12/01 10:29:30;;;;;;;;;;;;;;;;;;6272347;28;20293;-85
2023/12/01 10:32:30;;;;;;;;;;;;;;;;;;6271979;28;20424;-82
2023/12/01 10:35:31;;;;;;;;;;;;;;;;;;6261935;28;19967;-82
2023/12/01 10:38:31;;;;;;;;;;;;;;;;;;6271012;28;19923;-83
2023/12/01 10:41:31;;;;;;;;;;;;;;;;;;6272655;28;19920;-87
2023/12/01 10:44:31;;;;;;;;;;;;;;;;;;6273116;28;19916;-87
2023/12/01 10:47:31;;;;;;;;;;;;;;;;;;6285003;28;19917;-87
2023/12/01 10:50:31;;;;;;;;;;;;;;;;;;6268959;28;19917;-87
2023/12/01 10:53:32;;;;;;;;;;;;;;;;;;6275304;28;19921;-86
2023/12/01 10:56:32;;;;;;;;;;;;;;;;;;6274061;28;20348;-88
2023/12/01 10:59:32;;;;;;;;;;;;;;;;;;6279189;28;19951;-89
2023/12/01 11:02:32;;;;;;;;;;;;;;;;;;6272625;28;19959;-88
2023/12/01 11:05:32;;;;;;;;;;;;;;;;;;6275290;28;19972;-88
2023/12/01 11:08:32;;;;;;;;;;;;;;;;;;6264478;28;19912;-89
2023/12/01 11:11:32;;;;;;;;;;;;;;;;;;6279222;28;19912;-89
2023/12/01 11:14:33;;;;;;;;;;;;;;;;;;6282470;28;19920;-88
2023/12/01 11:17:33;;;;;;;;;;;;;;;;;;6273258;28;19920;-88
2023/12/01 11:20:33;;;;;;;;;;;;;;;;;;6274367;28;19939;-88
2023/12/01 11:23:34;;;;;;;;;;;;;;;;;;6280682;28;19982;-88
2023/12/01 11:26:34;;;;;;;;;;;;;;;;;;6275450;28;19912;-88
2023/12/01 11:29:36;;;;;;;;;;;;;;;;;;6274948;28;19913;-88
2023/12/01 11:32:37;;;;;;;;;;;;;;;;;;6290696;28;19935;-86
2023/12/01 11:35:37;;;;;;;;;;;;;;;;;;6275116;28;20361;-86
2023/12/01 11:38:37;;;;;;;;;;;;;;;;;;6274506;28;20440;-87
2023/12/01 11:41:37;;;;;;;;;;;;;;;;;;6296081;28;19921;-85
2023/12/01 11:44:38;;;;;;;;;;;;;;;;;;6271588;28;20262;-86
2023/12/01 11:47:38;;;;;;;;;;;;;;;;;;6275238;28;20384;-87
2023/12/01 11:50:40;;;;;;;;;;;;;;;;;;6278573;28;19928;-86
2023/12/01 11:53:40;;;;;;;;;;;;;;;;;;6277524;28;19932;-86
2023/12/01 11:56:40;;;;;;;;;;;;;;;;;;6277364;28;19959;-86
2023/12/01 11:59:40;;;;;;;;;;;;;;;;;;6272271;28;20278;-85
2023/12/01 12:02:41;;;;;;;;;;;;;;;;;;6275267;28;19927;-86
2023/12/01 12:05:41;;;;;;;;;;;;;;;;;;6276015;28;19920;-85
2023/12/01 12:08:42;;;;;;;;;;;;;;;;;;6275835;28;20289;-85
2023/12/01 12:11:42;;;;;;;;;;;;;;;;;;6273598;28;19913;-85
2023/12/01 12:14:42;;;;;;;;;;;;;;;;;;6278179;28;19968;-86
2023/12/01 12:17:42;;;;;;;;;;;;;;;;;;6299988;28;20692;-86
2023/12/01 12:20:43;;;;;;;;;;;;;;;;;;6279912;28;19916;-87
2023/12/01 12:23:43;;;;;;;;;;;;;;;;;;6265830;28;20011;-86
2023/12/01 12:26:43;;;;;;;;;;;;;;;;;;6274955;28;20286;-86
2023/12/01 12:29:43;;;;;;;;;;;;;;;;;;6269600;28;20355;-86
2023/12/01 12:32:43;;;;;;;;;;;;;;;;;;6263722;28;19925;-85
2023/12/01 12:35:43;;;;;;;;;;;;;;;;;;6274417;28;19921;-85
2023/12/01 12:38:43;;;;;;;;;;;;;;;;;;6268127;28;20007;-85
2023/12/01 12:41:44;;;;;;;;;;;;;;;;;;6278213;28;19948;-85
2023/12/01 12:44:44;;;;;;;;;;;;;;;;;;6275450;28;19940;-84
2023/12/01 12:47:44;;;;;;;;;;;;;;;;;;6271590;28;20024;-84
2023/12/01 12:50:44;;;;;;;;;;;;;;;;;;6268036;28;19912;-84
2023/12/01 12:53:47;;;;;;;;;;;;;;;;;;6275478;28;19927;-84
2023/12/01 12:56:48;;;;;;;;;;;;;;;;;;6273080;28;20413;-85
2023/12/01 12:59:53;;;;;;;;;;;;;;;;;;6279393;28;19927;-83
2023/12/01 13:02:54;;;;;;;;;;;;;;;;;;6280326;28;19917;-83
2023/12/01 13:05:54;;;;;;;;;;;;;;;;;;6272439;28;19951;-83
2023/12/01 13:08:54;;;;;;;;;;;;;;;;;;6265613;28;19942;-84
2023/12/01 13:11:55;;;;;;;;;;;;;;;;;;6273466;28;19916;-83
2023/12/01 13:14:55;;;;;;;;;;;;;;;;;;6275994;28;20082;-85
2023/12/01 13:17:56;;;;;;;;;;;;;;;;;;6273941;28;19958;-83
2023/12/01 13:20:57;;;;;;;;;;;;;;;;;;6275677;28;19956;-83
2023/12/01 13:23:57;;;;;;;;;;;;;;;;;;6276412;28;19912;-83
2023/12/01 13:26:57;;;;;;;;;;;;;;;;;;6261273;28;19913;-84
2023/12/01 13:29:58;;;;;;;;;;;;;;;;;;6280866;28;19921;-84
2023/12/01 13:32:58;;;;;;;;;;;;;;;;;;6282374;28;19919;-81
2023/12/01 13:35:58;;;;;;;;;;;;;;;;;;6275968;28;19970;-83
2023/12/01 13:38:58;;;;;;;;;;;;;;;;;;6289208;28;19928;-84
2023/12/01 13:41:58;;;;;;;;;;;;;;;;;;6270628;28;19963;-83
2023/12/01 13:45:00;;;;;;;;;;;;;;;;;;6275483;28;20003;-84
2023/12/01 13:48:01;;;;;;;;;;;;;;;;;;6277563;28;19915;-84
2023/12/01 13:51:01;;;;;;;;;;;;;;;;;;6277513;28;19917;-85
2023/12/01 13:54:01;;;;;;;;;;;;;;;;;;6266951;28;19922;-83
2023/12/01 13:57:01;;;;;;;;;;;;;;;;;;6280999;28;20367;-85
2023/12/01 14:00:02;;;;;;;;;;;;;;;;;;6275864;28;19952;-84
2023/12/01 14:03:02;;;;;;;;;;;;;;;;;;6260008;28;19917;-84
2023/12/01 14:06:02;;;;;;;;;;;;;;;;;;6272335;28;20498;-86
2023/12/01 14:09:04;;;;;;;;;;;;;;;;;;6269103;28;19956;-86
2023/12/01 14:12:04;;;;;;;;;;;;;;;;;;6273934;28;19913;-84
2023/12/01 14:15:04;;;;;;;;;;;;;;;;;;6270770;28;19936;-84
2023/12/01 14:18:04;;;;;;;;;;;;;;;;;;6271331;28;19921;-84
2023/12/01 14:21:04;;;;;;;;;;;;;;;;;;6272067;28;19913;-85
2023/12/01 14:24:04;;;;;;;;;;;;;;;;;;6274136;28;19917;-81
2023/12/01 14:27:05;;;;;;;;;;;;;;;;;;6281516;28;19921;-84
2023/12/01 14:30:06;;;;;;;;;;;;;;;;;;6269288;28;20289;-83
2023/12/01 14:33:06;;;;;;;;;;;;;;;;;;6269153;28;20055;-81
2023/12/01 14:36:06;;;;;;;;;;;;;;;;;;6266786;28;20365;-84
2023/12/01 14:39:07;;;;;;;;;;;;;;;;;;6288244;28;20274;-84
2023/12/01 14:42:07;;;;;;;;;;;;;;;;;;6264934;28;19966;-84
2023/12/01 14:45:09;;;;;;;;;;;;;;;;;;6270114;28;20269;-83
2023/12/01 14:48:10;;;;;;;;;;;;;;;;;;6274147;28;19936;-83
2023/12/01 14:51:10;;;;;;;;;;;;;;;;;;6275718;28;19999;-83
2023/12/01 14:54:10;;;;;;;;;;;;;;;;;;6256174;28;19936;-83
2023/12/01 14:57:10;;;;;;;;;;;;;;;;;;6273555;28;19921;-83
2023/12/01 15:00:10;;;;;;;;;;;;;;;;;;6273360;28;20343;-84
2023/12/01 15:03:11;;;;;;;;;;;;;;;;;;6273049;28;20420;-83
2023/12/01 15:06:12;;;;;;;;;;;;;;;;;;6275602;28;20388;-83
2023/12/01 15:09:14;;;;;;;;;;;;;;;;;;6268681;28;19920;-83
2023/12/01 15:12:14;;;;;;;;;;;;;;;;;;6273329;28;19913;-82
2023/12/01 15:15:14;;;;;;;;;;;;;;;;;;6282575;28;20408;-83
2023/12/01 15:18:14;;;;;;;;;;;;;;;;;;6267628;28;20277;-83
2023/12/01 15:21:15;;;;;;;;;;;;;;;;;;6267003;28;20368;-83
2023/12/01 15:24:16;;;;;;;;;;;;;;;;;;6273937;28;19958;-82
2023/12/01 15:27:17;;;;;;;;;;;;;;;;;;6270588;28;20008;-85
2023/12/01 15:30:17;;;;;;;;;;;;;;;;;;6276380;28;20352;-81
2023/12/01 15:33:17;;;;;;;;;;;;;;;;;;6271889;28;20300;-81
2023/12/01 15:36:17;;;;;;;;;;;;;;;;;;6259268;28;20307;-81
2023/12/01 15:39:17;;;;;;;;;;;;;;;;;;6297133;28;19913;-81
2023/12/01 15:42:17;;;;;;;;;;;;;;;;;;6275798;28;19912;-82
2023/12/01 15:45:17;;;;;;;;;;;;;;;;;;6257020;28;20176;-82
2023/12/01 15:48:17;;;;;;;;;;;;;;;;;;6273652;28;19912;-82
2023/12/01 15:51:18;;;;;;;;;;;;;;;;;;6271370;28;19913;-83
2023/12/01 15:54:18;;;;;;;;;;;;;;;;;;6276342;28;19927;-83
2023/12/01 15:57:18;;;;;;;;;;;;;;;;;;6272519;28;19921;-82
2023/12/01 16:00:18;;;;;;;;;;;;;;;;;;6273380;28;20429;-81
2023/12/01 16:03:18;;;;;;;;;;;;;;;;;;6277556;28;19916;-83
2023/12/01 16:06:18;;;;;;;;;;;;;;;;;;6273310;28;19965;-82
2023/12/01 16:09:18;;;;;;;;;;;;;;;;;;6271837;28;19977;-83
2023/12/01 16:12:18;;;;;;;;;;;;;;;;;;6282800;28;19916;-85
2023/12/01 16:15:19;;;;;;;;;;;;;;;;;;6277448;28;19929;-83
2023/12/01 16:18:23;;;;;;;;;;;;;;;;;;6295349;28;19913;-83
2023/12/01 16:21:26;;;;;;;;;;;;;;;;;;6284186;28;19921;-84
2023/12/01 16:24:26;;;;;;;;;;;;;;;;;;6278955;28;21020;-85
2023/12/01 16:27:27;;;;;;;;;;;;;;;;;;6275639;28;20361;-82
2023/12/01 16:30:27;;;;;;;;;;;;;;;;;;6302022;28;20293;-83
2023/12/01 16:33:27;;;;;;;;;;;;;;;;;;6280826;28;20444;-83
2023/12/01 16:36:27;;;;;;;;;;;;;;;;;;6272149;28;20401;-83
2023/12/01 16:39:27;;;;;;;;;;;;;;;;;;6253842;28;19970;-83
2023/12/01 16:42:28;;;;;;;;;;;;;;;;;;6269381;28;19913;-83
2023/12/01 16:45:28;;;;;;;;;;;;;;;;;;6259012;28;20497;-83
2023/12/01 16:48:28;;;;;;;;;;;;;;;;;;6270924;28;20053;-85
2023/12/01 16:51:28;;;;;;;;;;;;;;;;;;6271912;28;20373;-82
2023/12/01 16:54:28;;;;;;;;;;;;;;;;;;6271948;28;19921;-83
2023/12/01 16:57:28;;;;;;;;;;;;;;;;;;6281184;28;20016;-83
2023/12/01 17:00:30;;;;;;;;;;;;;;;;;;6276185;28;19918;-84
2023/12/01 17:03:31;;;;;;;;;;;;;;;;;;6272355;28;19934;-83
2023/12/01 17:06:31;;;;;;;;;;;;;;;;;;6274804;28;19943;-84
2023/12/01 17:09:31;;;;;;;;;;;;;;;;;;6272360;28;19913;-84
2023/12/01 17:12:31;;;;;;;;;;;;;;;;;;6272021;28;20373;-88
2023/12/01 17:15:31;;;;;;;;;;;;;;;;;;6273161;28;20615;-82
2023/12/01 17:18:32;;;;;;;;;;;;;;;;;;6273923;28;20404;-83
2023/12/01 17:21:32;;;;;;;;;;;;;;;;;;6272942;28;20029;-84
2023/12/01 17:24:32;;;;;;;;;;;;;;;;;;6274905;28;19999;-83
2023/12/01 17:27:32;;;;;;;;;;;;;;;;;;6265668;28;20062;-83
2023/12/01 17:30:32;;;;;;;;;;;;;;;;;;6277857;28;19925;-85
2023/12/01 17:33:32;;;;;;;;;;;;;;;;;;6261187;28;19972;-81
2023/12/01 17:36:32;;;;;;;;;;;;;;;;;;6274075;28;20019;-83
2023/12/01 17:39:33;;;;;;;;;;;;;;;;;;6269686;28;20011;-83
2023/12/01 17:42:33;;;;;;;;;;;;;;;;;;6275066;28;20343;-87
2023/12/01 17:45:33;;;;;;;;;;;;;;;;;;6277836;28;19962;-88
2023/12/01 17:48:33;;;;;;;;;;;;;;;;;;6269040;28;19952;-86
2023/12/01 17:51:33;;;;;;;;;;;;;;;;;;6263541;28;19959;-88
2023/12/01 17:54:33;;;;;;;;;;;;;;;;;;6274977;28;19982;-86
2023/12/01 17:57:34;;;;;;;;;;;;;;;;;;6263975;28;19940;-87
2023/12/01 18:00:35;;;;;;;;;;;;;;;;;;6273423;28;19974;-87
2023/12/01 18:03:36;;;;;;;;;;;;;;;;;;6271496;28;19916;-86
2023/12/01 18:06:36;;;;;;;;;;;;;;;;;;6271905;28;20436;-86
2023/12/01 18:09:36;;;;;;;;;;;;;;;;;;6259873;28;20441;-86
2023/12/01 18:12:36;;;;;;;;;;;;;;;;;;6275082;28;19944;-86
2023/12/01 18:15:36;;;;;;;;;;;;;;;;;;6271420;28;19925;-86
2023/12/01 18:18:37;;;;;;;;;;;;;;;;;;6269254;28;19921;-86
2023/12/01 18:21:37;;;;;;;;;;;;;;;;;;6271238;28;19972;-86
2023/12/01 18:24:37;;;;;;;;;;;;;;;;;;6255271;28;19920;-86
2023/12/01 18:27:37;;;;;;;;;;;;;;;;;;6286071;28;19913;-87
2023/12/01 18:30:37;;;;;;;;;;;;;;;;;;6274372;28;19920;-85
2023/12/01 18:33:38;;;;;;;;;;;;;;;;;;6279670;28;19924;-86
2023/12/01 18:36:38;;;;;;;;;;;;;;;;;;6273901;28;19913;-87
2023/12/01 18:39:38;;;;;;;;;;;;;;;;;;6277422;28;19935;-87
2023/12/01 18:42:38;;;;;;;;;;;;;;;;;;6270966;28;19928;-85
2023/12/01 18:45:38;;;;;;;;;;;;;;;;;;6276250;28;19913;-85
2023/12/01 18:48:39;;;;;;;;;;;;;;;;;;6280386;28;20378;-85
2023/12/01 18:51:39;;;;;;;;;;;;;;;;;;6258238;28;20361;-86
2023/12/01 18:54:39;;;;;;;;;;;;;;;;;;6274461;28;20373;-86
2023/12/01 18:57:39;;;;;;;;;;;;;;;;;;6277823;28;20423;-85
2023/12/01 19:00:39;;;;;;;;;;;;;;;;;;6271722;28;19917;-86
2023/12/01 19:03:39;;;;;;;;;;;;;;;;;;6272650;28;19939;-86
2023/12/01 19:06:40;;;;;;;;;;;;;;;;;;6276118;28;19919;-86
2023/12/01 19:09:40;;;;;;;;;;;;;;;;;;6272629;28;19924;-86
2023/12/01 19:12:40;;;;;;;;;;;;;;;;;;6277369;28;19913;-86
2023/12/01 19:15:40;;;;;;;;;;;;;;;;;;6276429;28;19927;-86
2023/12/01 19:18:40;;;;;;;;;;;;;;;;;;6287949;28;19918;-88
2023/12/01 19:21:40;;;;;;;;;;;;;;;;;;6274654;28;20391;-86
2023/12/01 19:24:40;;;;;;;;;;;;;;;;;;6277926;28;20009;-85
2023/12/01 19:27:41;;;;;;;;;;;;;;;;;;6270750;28;19959;-85
2023/12/01 19:30:41;;;;;;;;;;;;;;;;;;6269643;28;19963;-86
2023/12/01 19:33:42;;;;;;;;;;;;;;;;;;6276176;28;19974;-86
2023/12/01 19:36:42;;;;;;;;;;;;;;;;;;6276248;28;19920;-86
2023/12/01 19:39:43;;;;;;;;;;;;;;;;;;6277840;28;19931;-87
2023/12/01 19:42:43;;;;;;;;;;;;;;;;;;6282027;28;19967;-86
2023/12/01 19:45:43;;;;;;;;;;;;;;;;;;6277251;28;19920;-86
2023/12/01 19:48:43;;;;;;;;;;;;;;;;;;6279756;28;20360;-86
2023/12/01 19:51:43;;;;;;;;;;;;;;;;;;6275096;28;20642;-86
2023/12/01 19:54:43;;;;;;;;;;;;;;;;;;6282230;28;21562;-85
2023/12/01 19:57:44;;;;;;;;;;;;;;;;;;6274593;28;19917;-86
2023/12/01 20:00:44;;;;;;;;;;;;;;;;;;6295585;28;19913;-86
2023/12/01 20:03:44;;;;;;;;;;;;;;;;;;6278846;28;19917;-87
2023/12/01 20:06:44;;;;;;;;;;;;;;;;;;6269786;28;20297;-86
2023/12/01 20:09:44;;;;;;;;;;;;;;;;;;6281068;28;19913;-85
2023/12/01 20:12:44;;;;;;;;;;;;;;;;;;6281679;28;19912;-82
2023/12/01 20:15:45;;;;;;;;;;;;;;;;;;6282399;28;19920;-83
2023/12/01 20:18:45;;;;;;;;;;;;;;;;;;6278852;28;19913;-83
2023/12/01 20:21:45;;;;;;;;;;;;;;;;;;6276648;28;19919;-83
2023/12/01 20:24:45;;;;;;;;;;;;;;;;;;6274220;28;19913;-86
2023/12/01 20:27:45;;;;;;;;;;;;;;;;;;6277326;28;20369;-83
2023/12/01 20:30:45;;;;;;;;;;;;;;;;;;6254094;28;19925;-85
2023/12/01 20:33:45;;;;;;;;;;;;;;;;;;6242845;28;19936;-84